sensor_id;sensor_type;location;lat;lon;timestamp;P1;P2;P0
54305;PMS7003;66145;45.188;5.712;2023-05-24T00:01:56;10.00;10.00;8.00
54305;PMS7003;66145;45.188;5.712;2023-05-24T00:04:21;12.33;11.00;8.00
54305;PMS7003;66145;45.188;5.712;2023-05-24T00:06:49;11.50;11.50;8.00
54305;PMS7003;66145;45.188;5.712;2023-05-24T00:09:15;10.00;10.00;7.00
54305;PMS7003;66145;45.188;5.712;2023-05-24T00:11:40;11.33;11.00;8.00
54305;PMS7003;66145;45.188;5.712;2023-05-24T00:14:06;11.67;10.00;7.33
54305;PMS7003;66145;45.188;5.712;2023-05-24T00:16:31;11.67;11.67;8.00
54305;PMS7003;66145;45.188;5.712;2023-05-24T00:18:57;7.67;6.00;4.67
54305;PMS7003;66145;45.188;5.712;2023-05-24T00:21:23;10.33;10.33;7.00
54305;PMS7003;66145;45.188;5.712;2023-05-24T00:23:48;11.00;9.00;7.00
54305;PMS7003;66145;45.188;5.712;2023-05-24T00:26:15;10.00;8.50;5.75
54305;PMS7003;66145;45.188;5.712;2023-05-24T00:28:41;9.00;9.00;7.67
54305;PMS7003;66145;45.188;5.712;2023-05-24T00:31:06;11.00;9.67;7.00
54305;PMS7003;66145;45.188;5.712;2023-05-24T00:33:32;9.33;9.33;6.00
54305;PMS7003;66145;45.188;5.712;2023-05-24T00:35:58;9.00;9.00;7.00
54305;PMS7003;66145;45.188;5.712;2023-05-24T00:38:23;9.67;9.67;7.00
54305;PMS7003;66145;45.188;5.712;2023-05-24T00:40:49;8.75;8.75;6.00
54305;PMS7003;66145;45.188;5.712;2023-05-24T00:43:15;9.67;9.33;7.00
54305;PMS7003;66145;45.188;5.712;2023-05-24T00:45:40;5.67;5.67;4.33
54305;PMS7003;66145;45.188;5.712;2023-05-24T00:48:06;7.00;7.00;6.00
54305;PMS7003;66145;45.188;5.712;2023-05-24T00:50:32;7.50;7.50;5.00
54305;PMS7003;66145;45.188;5.712;2023-05-24T00:52:58;8.00;8.00;7.00
54305;PMS7003;66145;45.188;5.712;2023-05-24T00:55:26;10.00;8.50;6.00
54305;PMS7003;66145;45.188;5.712;2023-05-24T00:57:52;10.00;10.00;7.00
54305;PMS7003;66145;45.188;5.712;2023-05-24T01:00:19;10.00;9.00;6.75
54305;PMS7003;66145;45.188;5.712;2023-05-24T01:02:44;11.67;10.00;7.00
54305;PMS7003;66145;45.188;5.712;2023-05-24T01:05:12;11.75;11.00;7.50
54305;PMS7003;66145;45.188;5.712;2023-05-24T01:07:44;9.00;9.00;5.33
54305;PMS7003;66145;45.188;5.712;2023-05-24T01:16:14;8.25;7.50;5.75
54305;PMS7003;66145;45.188;5.712;2023-05-24T01:18:53;11.00;9.50;6.25
54305;PMS7003;66145;45.188;5.712;2023-05-24T01:27:03;7.50;7.50;6.00
54305;PMS7003;66145;45.188;5.712;2023-05-24T01:29:35;11.50;9.50;6.50
54305;PMS7003;66145;45.188;5.712;2023-05-24T01:32:01;9.00;9.00;6.50
54305;PMS7003;66145;45.188;5.712;2023-05-24T01:34:27;8.67;8.67;6.00
54305;PMS7003;66145;45.188;5.712;2023-05-24T01:36:53;9.00;9.00;7.00
54305;PMS7003;66145;45.188;5.712;2023-05-24T01:39:18;10.00;9.33;6.00
54305;PMS7003;66145;45.188;5.712;2023-05-24T01:42:08;10.50;9.00;7.00
54305;PMS7003;66145;45.188;5.712;2023-05-24T01:44:58;6.00;6.00;4.75
54305;PMS7003;66145;45.188;5.712;2023-05-24T01:48:04;7.75;7.75;4.75
54305;PMS7003;66145;45.188;5.712;2023-05-24T01:51:05;8.00;8.00;6.00
54305;PMS7003;66145;45.188;5.712;2023-05-24T01:53:33;9.50;9.25;6.00
54305;PMS7003;66145;45.188;5.712;2023-05-24T01:56:04;9.00;9.00;6.25
54305;PMS7003;66145;45.188;5.712;2023-05-24T01:58:30;7.50;7.50;6.00
54305;PMS7003;66145;45.188;5.712;2023-05-24T02:00:57;7.75;7.75;5.00
54305;PMS7003;66145;45.188;5.712;2023-05-24T02:03:23;7.50;7.00;5.00
54305;PMS7003;66145;45.188;5.712;2023-05-24T02:05:49;6.33;6.33;5.00
54305;PMS7003;66145;45.188;5.712;2023-05-24T02:08:14;9.00;7.00;6.00
54305;PMS7003;66145;45.188;5.712;2023-05-24T02:10:40;6.00;6.00;5.00
54305;PMS7003;66145;45.188;5.712;2023-05-24T02:13:06;6.67;6.67;5.00
54305;PMS7003;66145;45.188;5.712;2023-05-24T02:15:32;8.00;7.00;5.00
54305;PMS7003;66145;45.188;5.712;2023-05-24T02:18:02;11.75;8.50;6.50
54305;PMS7003;66145;45.188;5.712;2023-05-24T02:20:28;7.25;7.00;5.00
54305;PMS7003;66145;45.188;5.712;2023-05-24T02:23:01;9.75;7.75;4.00
54305;PMS7003;66145;45.188;5.712;2023-05-24T02:25:27;8.25;8.25;6.00
54305;PMS7003;66145;45.188;5.712;2023-05-24T02:27:53;8.00;6.00;5.00
54305;PMS7003;66145;45.188;5.712;2023-05-24T02:30:18;7.00;7.00;4.33
54305;PMS7003;66145;45.188;5.712;2023-05-24T02:32:43;9.00;9.00;6.00
54305;PMS7003;66145;45.188;5.712;2023-05-24T02:35:09;7.00;6.33;5.00
54305;PMS7003;66145;45.188;5.712;2023-05-24T02:37:34;7.67;7.67;6.00
54305;PMS7003;66145;45.188;5.712;2023-05-24T02:40:00;6.67;6.67;5.33
54305;PMS7003;66145;45.188;5.712;2023-05-24T02:42:25;8.00;8.00;6.00
54305;PMS7003;66145;45.188;5.712;2023-05-24T02:44:50;7.00;6.00;5.00
54305;PMS7003;66145;45.188;5.712;2023-05-24T02:47:17;6.67;6.67;5.00
54305;PMS7003;66145;45.188;5.712;2023-05-24T02:49:43;9.00;7.50;5.75
54305;PMS7003;66145;45.188;5.712;2023-05-24T02:52:09;8.00;8.00;6.00
54305;PMS7003;66145;45.188;5.712;2023-05-24T02:54:34;7.00;7.00;6.00
54305;PMS7003;66145;45.188;5.712;2023-05-24T02:57:01;7.00;5.75;4.25
54305;PMS7003;66145;45.188;5.712;2023-05-24T02:59:27;6.25;6.25;4.75
54305;PMS7003;66145;45.188;5.712;2023-05-24T03:01:53;8.67;8.67;6.67
54305;PMS7003;66145;45.188;5.712;2023-05-24T03:04:18;9.33;8.00;6.00
54305;PMS7003;66145;45.188;5.712;2023-05-24T03:06:44;6.67;6.67;5.00
54305;PMS7003;66145;45.188;5.712;2023-05-24T03:09:09;8.00;8.00;6.00
54305;PMS7003;66145;45.188;5.712;2023-05-24T03:11:35;8.67;7.67;5.67
54305;PMS7003;66145;45.188;5.712;2023-05-24T03:14:00;6.67;5.00;4.00
54305;PMS7003;66145;45.188;5.712;2023-05-24T03:16:25;6.33;6.33;4.33
54305;PMS7003;66145;45.188;5.712;2023-05-24T03:18:51;7.00;7.00;6.33
54305;PMS7003;66145;45.188;5.712;2023-05-24T03:21:19;6.75;6.75;5.25
54305;PMS7003;66145;45.188;5.712;2023-05-24T03:23:45;7.50;7.00;5.75
54305;PMS7003;66145;45.188;5.712;2023-05-24T03:26:10;5.33;5.33;4.00
54305;PMS7003;66145;45.188;5.712;2023-05-24T03:28:37;5.25;5.25;4.00
54305;PMS7003;66145;45.188;5.712;2023-05-24T03:31:02;6.00;6.00;4.00
54305;PMS7003;66145;45.188;5.712;2023-05-24T03:33:28;8.00;8.00;6.00
54305;PMS7003;66145;45.188;5.712;2023-05-24T03:35:53;7.00;7.00;6.00
54305;PMS7003;66145;45.188;5.712;2023-05-24T03:38:19;8.33;8.33;7.00
54305;PMS7003;66145;45.188;5.712;2023-05-24T03:40:44;7.00;7.00;5.67
54305;PMS7003;66145;45.188;5.712;2023-05-24T03:43:10;6.33;6.33;5.00
54305;PMS7003;66145;45.188;5.712;2023-05-24T03:45:36;5.67;5.67;5.00
54305;PMS7003;66145;45.188;5.712;2023-05-24T03:48:01;9.00;7.67;6.67
54305;PMS7003;66145;45.188;5.712;2023-05-24T03:50:27;6.33;6.33;4.67
54305;PMS7003;66145;45.188;5.712;2023-05-24T03:52:52;5.00;5.00;4.00
54305;PMS7003;66145;45.188;5.712;2023-05-24T03:55:17;8.00;8.00;5.00
54305;PMS7003;66145;45.188;5.712;2023-05-24T03:57:43;6.00;6.00;5.00
54305;PMS7003;66145;45.188;5.712;2023-05-24T04:00:08;6.00;6.00;4.00
54305;PMS7003;66145;45.188;5.712;2023-05-24T04:02:34;7.75;6.00;4.75
54305;PMS7003;66145;45.188;5.712;2023-05-24T04:05:02;6.00;6.00;4.50
54305;PMS7003;66145;45.188;5.712;2023-05-24T04:07:28;8.25;7.00;5.50
54305;PMS7003;66145;45.188;5.712;2023-05-24T04:09:53;7.67;6.33;5.33
54305;PMS7003;66145;45.188;5.712;2023-05-24T04:12:19;7.33;7.33;5.00
54305;PMS7003;66145;45.188;5.712;2023-05-24T04:14:44;7.67;7.67;5.67
54305;PMS7003;66145;45.188;5.712;2023-05-24T04:17:10;7.00;7.00;5.00
54305;PMS7003;66145;45.188;5.712;2023-05-24T04:19:36;6.25;6.25;4.00
54305;PMS7003;66145;45.188;5.712;2023-05-24T04:22:01;5.00;5.00;4.00
54305;PMS7003;66145;45.188;5.712;2023-05-24T04:24:26;5.67;5.67;3.67
54305;PMS7003;66145;45.188;5.712;2023-05-24T04:26:52;7.33;6.67;4.33
54305;PMS7003;66145;45.188;5.712;2023-05-24T04:29:18;5.33;5.33;4.00
54305;PMS7003;66145;45.188;5.712;2023-05-24T04:31:43;6.00;6.00;5.00
54305;PMS7003;66145;45.188;5.712;2023-05-24T04:34:09;6.00;6.00;5.00
54305;PMS7003;66145;45.188;5.712;2023-05-24T04:36:38;5.75;5.75;5.50
54305;PMS7003;66145;45.188;5.712;2023-05-24T04:39:03;8.00;6.00;5.00
54305;PMS7003;66145;45.188;5.712;2023-05-24T04:41:29;5.00;5.00;4.00
54305;PMS7003;66145;45.188;5.712;2023-05-24T04:43:56;6.00;6.00;5.25
54305;PMS7003;66145;45.188;5.712;2023-05-24T04:46:23;6.00;6.00;4.00
54305;PMS7003;66145;45.188;5.712;2023-05-24T04:48:50;5.00;5.00;4.00
54305;PMS7003;66145;45.188;5.712;2023-05-24T04:51:16;5.00;5.00;3.33
54305;PMS7003;66145;45.188;5.712;2023-05-24T04:53:41;8.00;6.33;5.00
54305;PMS7003;66145;45.188;5.712;2023-05-24T04:56:07;5.00;5.00;4.00
54305;PMS7003;66145;45.188;5.712;2023-05-24T04:58:32;5.33;5.33;4.67
54305;PMS7003;66145;45.188;5.712;2023-05-24T05:01:00;6.50;6.50;5.00
54305;PMS7003;66145;45.188;5.712;2023-05-24T05:03:26;7.00;5.50;5.00
54305;PMS7003;66145;45.188;5.712;2023-05-24T05:05:51;6.00;6.00;5.00
54305;PMS7003;66145;45.188;5.712;2023-05-24T05:08:17;5.00;5.00;4.00
54305;PMS7003;66145;45.188;5.712;2023-05-24T05:10:43;5.25;5.25;3.75
54305;PMS7003;66145;45.188;5.712;2023-05-24T05:13:08;6.67;6.00;4.67
54305;PMS7003;66145;45.188;5.712;2023-05-24T05:15:34;9.00;6.00;5.00
54305;PMS7003;66145;45.188;5.712;2023-05-24T05:17:59;6.00;6.00;4.00
54305;PMS7003;66145;45.188;5.712;2023-05-24T05:20:25;6.00;6.00;5.00
54305;PMS7003;66145;45.188;5.712;2023-05-24T05:22:50;9.00;7.00;5.00
54305;PMS7003;66145;45.188;5.712;2023-05-24T05:25:15;6.00;6.00;4.33
54305;PMS7003;66145;45.188;5.712;2023-05-24T05:27:41;7.00;5.67;4.67
54305;PMS7003;66145;45.188;5.712;2023-05-24T05:30:08;5.50;5.50;3.75
54305;PMS7003;66145;45.188;5.712;2023-05-24T05:32:33;5.33;5.33;4.33
54305;PMS7003;66145;45.188;5.712;2023-05-24T05:34:59;6.00;6.00;5.00
54305;PMS7003;66145;45.188;5.712;2023-05-24T05:37:24;5.00;5.00;4.00
54305;PMS7003;66145;45.188;5.712;2023-05-24T05:39:50;6.33;6.33;4.00
54305;PMS7003;66145;45.188;5.712;2023-05-24T05:42:15;6.00;6.00;4.67
54305;PMS7003;66145;45.188;5.712;2023-05-24T05:44:41;4.00;4.00;3.00
54305;PMS7003;66145;45.188;5.712;2023-05-24T05:47:07;7.00;7.00;4.00
54305;PMS7003;66145;45.188;5.712;2023-05-24T05:49:33;6.00;4.50;3.50
54305;PMS7003;66145;45.188;5.712;2023-05-24T05:52:00;6.00;6.00;4.75
54305;PMS7003;66145;45.188;5.712;2023-05-24T05:54:26;6.75;6.75;4.75
54305;PMS7003;66145;45.188;5.712;2023-05-24T05:56:52;3.33;3.33;3.00
54305;PMS7003;66145;45.188;5.712;2023-05-24T05:59:18;6.33;6.33;4.33
54305;PMS7003;66145;45.188;5.712;2023-05-24T06:01:43;6.00;6.00;4.33
54305;PMS7003;66145;45.188;5.712;2023-05-24T06:04:13;6.75;6.75;5.00
54305;PMS7003;66145;45.188;5.712;2023-05-24T06:06:39;5.75;5.75;4.25
54305;PMS7003;66145;45.188;5.712;2023-05-24T06:09:05;5.33;5.33;4.00
54305;PMS7003;66145;45.188;5.712;2023-05-24T06:11:30;7.00;5.67;5.00
54305;PMS7003;66145;45.188;5.712;2023-05-24T06:13:56;7.00;7.00;5.00
54305;PMS7003;66145;45.188;5.712;2023-05-24T06:16:21;5.67;5.67;4.67
54305;PMS7003;66145;45.188;5.712;2023-05-24T06:18:46;5.33;5.33;4.67
54305;PMS7003;66145;45.188;5.712;2023-05-24T06:21:13;5.00;5.00;4.00
54305;PMS7003;66145;45.188;5.712;2023-05-24T06:23:39;9.75;8.00;6.00
54305;PMS7003;66145;45.188;5.712;2023-05-24T06:26:05;5.00;5.00;4.33
54305;PMS7003;66145;45.188;5.712;2023-05-24T06:28:33;5.00;5.00;4.00
54305;PMS7003;66145;45.188;5.712;2023-05-24T06:30:59;8.00;8.00;5.00
54305;PMS7003;66145;45.188;5.712;2023-05-24T06:33:24;6.33;6.33;4.67
54305;PMS7003;66145;45.188;5.712;2023-05-24T06:35:51;8.00;8.00;6.00
54305;PMS7003;66145;45.188;5.712;2023-05-24T06:38:16;8.00;8.00;7.00
54305;PMS7003;66145;45.188;5.712;2023-05-24T06:40:42;7.00;7.00;5.00
54305;PMS7003;66145;45.188;5.712;2023-05-24T06:43:07;7.00;7.00;5.33
54305;PMS7003;66145;45.188;5.712;2023-05-24T06:45:33;12.33;10.67;7.00
54305;PMS7003;66145;45.188;5.712;2023-05-24T06:47:58;7.00;7.00;5.00
54305;PMS7003;66145;45.188;5.712;2023-05-24T06:50:23;5.67;5.67;4.67
54305;PMS7003;66145;45.188;5.712;2023-05-24T06:52:49;7.33;7.33;5.00
54305;PMS7003;66145;45.188;5.712;2023-05-24T06:55:14;7.67;7.67;6.00
54305;PMS7003;66145;45.188;5.712;2023-05-24T06:57:40;8.00;8.00;6.00
54305;PMS7003;66145;45.188;5.712;2023-05-24T07:00:06;7.00;7.00;6.00
54305;PMS7003;66145;45.188;5.712;2023-05-24T07:02:36;7.25;7.25;5.00
54305;PMS7003;66145;45.188;5.712;2023-05-24T07:05:05;7.75;7.75;6.00
54305;PMS7003;66145;45.188;5.712;2023-05-24T07:07:39;7.00;7.00;6.00
54305;PMS7003;66145;45.188;5.712;2023-05-24T07:10:06;5.25;5.25;4.25
54305;PMS7003;66145;45.188;5.712;2023-05-24T07:12:33;8.25;8.25;6.50
54305;PMS7003;66145;45.188;5.712;2023-05-24T07:14:58;8.00;8.00;6.00
54305;PMS7003;66145;45.188;5.712;2023-05-24T07:17:23;11.67;11.67;8.67
54305;PMS7003;66145;45.188;5.712;2023-05-24T07:19:49;13.00;11.67;8.00
54305;PMS7003;66145;45.188;5.712;2023-05-24T07:22:15;9.00;9.00;6.75
54305;PMS7003;66145;45.188;5.712;2023-05-24T07:24:40;9.67;9.67;7.33
54305;PMS7003;66145;45.188;5.712;2023-05-24T07:27:06;9.00;8.33;6.67
54305;PMS7003;66145;45.188;5.712;2023-05-24T07:29:31;9.00;9.00;6.33
54305;PMS7003;66145;45.188;5.712;2023-05-24T07:31:56;9.33;9.33;7.00
54305;PMS7003;66145;45.188;5.712;2023-05-24T07:34:22;9.00;9.00;6.67
54305;PMS7003;66145;45.188;5.712;2023-05-24T07:36:51;9.00;9.00;7.00
54305;PMS7003;66145;45.188;5.712;2023-05-24T07:39:16;9.00;8.00;6.33
54305;PMS7003;66145;45.188;5.712;2023-05-24T07:41:42;10.00;10.00;8.00
54305;PMS7003;66145;45.188;5.712;2023-05-24T07:44:08;10.00;10.00;7.00
54305;PMS7003;66145;45.188;5.712;2023-05-24T07:46:33;9.67;9.67;6.33
54305;PMS7003;66145;45.188;5.712;2023-05-24T07:48:59;8.00;8.00;5.67
54305;PMS7003;66145;45.188;5.712;2023-05-24T07:51:24;7.33;7.33;6.00
54305;PMS7003;66145;45.188;5.712;2023-05-24T07:53:50;7.25;7.25;6.25
54305;PMS7003;66145;45.188;5.712;2023-05-24T07:56:15;10.33;8.00;6.00
54305;PMS7003;66145;45.188;5.712;2023-05-24T07:58:41;7.00;7.00;6.00
54305;PMS7003;66145;45.188;5.712;2023-05-24T08:01:09;8.25;8.25;5.75
54305;PMS7003;66145;45.188;5.712;2023-05-24T08:03:34;9.33;9.33;8.00
54305;PMS7003;66145;45.188;5.712;2023-05-24T08:06:00;12.67;10.33;8.00
54305;PMS7003;66145;45.188;5.712;2023-05-24T08:08:26;8.50;8.50;5.75
54305;PMS7003;66145;45.188;5.712;2023-05-24T08:10:52;9.00;9.00;6.00
54305;PMS7003;66145;45.188;5.712;2023-05-24T08:13:17;8.67;7.67;5.00
54305;PMS7003;66145;45.188;5.712;2023-05-24T08:15:43;9.00;9.00;7.00
54305;PMS7003;66145;45.188;5.712;2023-05-24T08:18:08;11.00;8.00;6.00
54305;PMS7003;66145;45.188;5.712;2023-05-24T08:20:33;9.67;9.67;7.00
54305;PMS7003;66145;45.188;5.712;2023-05-24T08:23:00;7.75;6.75;5.50
54305;PMS7003;66145;45.188;5.712;2023-05-24T08:25:26;10.00;9.00;7.00
54305;PMS7003;66145;45.188;5.712;2023-05-24T08:27:52;8.00;8.00;6.00
54305;PMS7003;66145;45.188;5.712;2023-05-24T08:30:21;8.25;8.25;6.00
54305;PMS7003;66145;45.188;5.712;2023-05-24T08:32:47;10.50;10.50;7.75
54305;PMS7003;66145;45.188;5.712;2023-05-24T08:35:13;10.33;10.33;7.00
54305;PMS7003;66145;45.188;5.712;2023-05-24T08:37:38;11.33;11.00;8.00
54305;PMS7003;66145;45.188;5.712;2023-05-24T08:40:03;10.00;10.00;7.67
54305;PMS7003;66145;45.188;5.712;2023-05-24T08:42:29;8.33;7.00;6.33
54305;PMS7003;66145;45.188;5.712;2023-05-24T08:45:02;11.00;11.00;7.25
54305;PMS7003;66145;45.188;5.712;2023-05-24T08:47:33;9.50;9.50;7.00
54305;PMS7003;66145;45.188;5.712;2023-05-24T08:50:01;10.75;9.50;7.75
54305;PMS7003;66145;45.188;5.712;2023-05-24T08:52:26;9.50;8.50;6.25
54305;PMS7003;66145;45.188;5.712;2023-05-24T08:54:53;9.25;9.25;6.25
54305;PMS7003;66145;45.188;5.712;2023-05-24T08:57:19;8.00;8.00;7.00
54305;PMS7003;66145;45.188;5.712;2023-05-24T08:59:46;12.50;10.50;9.00
54305;PMS7003;66145;45.188;5.712;2023-05-24T09:02:12;10.00;10.00;7.67
54305;PMS7003;66145;45.188;5.712;2023-05-24T09:04:38;11.00;11.00;9.00
54305;PMS7003;66145;45.188;5.712;2023-05-24T09:07:09;11.25;9.00;7.00
54305;PMS7003;66145;45.188;5.712;2023-05-24T09:09:37;11.00;11.00;7.75
54305;PMS7003;66145;45.188;5.712;2023-05-24T09:12:09;11.00;11.00;7.00
54305;PMS7003;66145;45.188;5.712;2023-05-24T09:14:38;11.75;11.75;7.50
54305;PMS7003;66145;45.188;5.712;2023-05-24T09:17:09;11.00;11.00;7.75
54305;PMS7003;66145;45.188;5.712;2023-05-24T09:19:36;10.50;10.25;8.00
54305;PMS7003;66145;45.188;5.712;2023-05-24T09:22:03;9.50;9.50;7.00
54305;PMS7003;66145;45.188;5.712;2023-05-24T09:24:30;10.75;9.00;6.00
54305;PMS7003;66145;45.188;5.712;2023-05-24T09:26:55;7.33;7.00;5.00
54305;PMS7003;66145;45.188;5.712;2023-05-24T09:29:29;8.25;7.00;6.00
54305;PMS7003;66145;45.188;5.712;2023-05-24T09:31:55;6.00;6.00;4.33
54305;PMS7003;66145;45.188;5.712;2023-05-24T09:34:21;12.00;8.75;7.00
54305;PMS7003;66145;45.188;5.712;2023-05-24T09:36:46;8.00;8.00;6.00
54305;PMS7003;66145;45.188;5.712;2023-05-24T09:39:12;9.00;9.00;6.00
54305;PMS7003;66145;45.188;5.712;2023-05-24T09:41:38;7.33;7.33;6.00
54305;PMS7003;66145;45.188;5.712;2023-05-24T09:44:07;11.00;10.00;8.00
54305;PMS7003;66145;45.188;5.712;2023-05-24T09:46:35;9.33;9.33;6.67
54305;PMS7003;66145;45.188;5.712;2023-05-24T09:49:02;9.50;9.50;6.25
54305;PMS7003;66145;45.188;5.712;2023-05-24T09:51:28;8.00;8.00;6.00
54305;PMS7003;66145;45.188;5.712;2023-05-24T09:53:57;10.00;10.00;8.00
54305;PMS7003;66145;45.188;5.712;2023-05-24T09:56:25;11.50;9.50;7.25
54305;PMS7003;66145;45.188;5.712;2023-05-24T09:58:51;8.67;8.67;6.00
54305;PMS7003;66145;45.188;5.712;2023-05-24T10:01:17;7.75;7.75;6.00
54305;PMS7003;66145;45.188;5.712;2023-05-24T10:03:55;9.25;8.50;6.00
54305;PMS7003;66145;45.188;5.712;2023-05-24T10:06:22;7.50;7.50;6.00
54305;PMS7003;66145;45.188;5.712;2023-05-24T10:08:48;9.67;9.00;7.00
54305;PMS7003;66145;45.188;5.712;2023-05-24T10:11:14;9.00;8.25;6.00
54305;PMS7003;66145;45.188;5.712;2023-05-24T10:13:40;12.33;11.67;8.33
54305;PMS7003;66145;45.188;5.712;2023-05-24T10:16:06;9.33;9.00;6.67
54305;PMS7003;66145;45.188;5.712;2023-05-24T10:18:31;9.33;9.33;7.67
54305;PMS7003;66145;45.188;5.712;2023-05-24T10:20:57;11.00;11.00;7.00
54305;PMS7003;66145;45.188;5.712;2023-05-24T10:23:25;12.50;12.50;8.25
54305;PMS7003;66145;45.188;5.712;2023-05-24T10:26:05;9.00;9.00;5.75
54305;PMS7003;66145;45.188;5.712;2023-05-24T10:28:48;12.25;11.00;8.00
54305;PMS7003;66145;45.188;5.712;2023-05-24T10:31:20;10.75;10.25;9.00
54305;PMS7003;66145;45.188;5.712;2023-05-24T10:33:50;9.25;8.00;5.75
54305;PMS7003;66145;45.188;5.712;2023-05-24T10:36:17;9.25;9.25;7.25
54305;PMS7003;66145;45.188;5.712;2023-05-24T10:38:45;9.75;8.00;7.00
54305;PMS7003;66145;45.188;5.712;2023-05-24T10:41:11;8.25;8.25;6.00
54305;PMS7003;66145;45.188;5.712;2023-05-24T10:43:37;12.50;9.50;6.50
54305;PMS7003;66145;45.188;5.712;2023-05-24T10:46:03;10.33;10.33;7.33
54305;PMS7003;66145;45.188;5.712;2023-05-24T10:48:32;9.00;9.00;6.25
54305;PMS7003;66145;45.188;5.712;2023-05-24T10:51:00;10.50;8.75;6.75
54305;PMS7003;66145;45.188;5.712;2023-05-24T10:53:45;11.00;10.50;7.50
54305;PMS7003;66145;45.188;5.712;2023-05-24T10:56:13;10.75;10.75;8.75
54305;PMS7003;66145;45.188;5.712;2023-05-24T11:01:39;10.25;9.25;7.00
54305;PMS7003;66145;45.188;5.712;2023-05-24T11:04:10;12.00;10.75;8.50
54305;PMS7003;66145;45.188;5.712;2023-05-24T11:06:51;10.00;10.00;8.00
54305;PMS7003;66145;45.188;5.712;2023-05-24T11:09:25;15.25;10.75;8.75
54305;PMS7003;66145;45.188;5.712;2023-05-24T11:12:07;11.25;11.25;9.00
54305;PMS7003;66145;45.188;5.712;2023-05-24T11:14:36;9.75;9.75;7.50
54305;PMS7003;66145;45.188;5.712;2023-05-24T11:17:04;10.50;10.50;7.00
54305;PMS7003;66145;45.188;5.712;2023-05-24T11:19:31;12.00;11.50;8.00
54305;PMS7003;66145;45.188;5.712;2023-05-24T11:21:59;10.00;10.00;6.00
54305;PMS7003;66145;45.188;5.712;2023-05-24T11:24:26;9.25;9.25;6.75
54305;PMS7003;66145;45.188;5.712;2023-05-24T11:26:52;12.67;12.00;8.00
54305;PMS7003;66145;45.188;5.712;2023-05-24T11:29:18;12.50;11.00;7.50
54305;PMS7003;66145;45.188;5.712;2023-05-24T11:31:49;11.00;10.75;7.25
54305;PMS7003;66145;45.188;5.712;2023-05-24T11:34:17;11.00;11.00;8.50
54305;PMS7003;66145;45.188;5.712;2023-05-24T11:36:43;11.75;11.75;7.50
54305;PMS7003;66145;45.188;5.712;2023-05-24T11:39:10;12.50;11.00;7.75
54305;PMS7003;66145;45.188;5.712;2023-05-24T11:41:38;15.33;14.67;10.00
54305;PMS7003;66145;45.188;5.712;2023-05-24T11:44:06;11.00;11.00;9.00
54305;PMS7003;66145;45.188;5.712;2023-05-24T11:46:32;15.25;13.50;8.75
54305;PMS7003;66145;45.188;5.712;2023-05-24T11:48:57;12.00;12.00;8.00
54305;PMS7003;66145;45.188;5.712;2023-05-24T11:51:28;17.00;14.00;10.00
54305;PMS7003;66145;45.188;5.712;2023-05-24T11:53:54;15.00;13.50;8.25
54305;PMS7003;66145;45.188;5.712;2023-05-24T11:56:20;15.25;11.00;8.00
54305;PMS7003;66145;45.188;5.712;2023-05-24T11:58:47;15.25;13.00;9.50
54305;PMS7003;66145;45.188;5.712;2023-05-24T12:01:26;14.00;12.00;8.25
54305;PMS7003;66145;45.188;5.712;2023-05-24T12:03:52;16.00;14.50;9.75
54305;PMS7003;66145;45.188;5.712;2023-05-24T12:06:21;13.00;12.00;9.00
54305;PMS7003;66145;45.188;5.712;2023-05-24T12:08:46;16.33;14.33;8.67
54305;PMS7003;66145;45.188;5.712;2023-05-24T12:11:13;14.00;14.00;9.25
54305;PMS7003;66145;45.188;5.712;2023-05-24T12:13:39;12.00;12.00;8.00
54305;PMS7003;66145;45.188;5.712;2023-05-24T12:16:05;15.33;14.33;9.00
54305;PMS7003;66145;45.188;5.712;2023-05-24T12:18:30;12.33;11.67;8.00
54305;PMS7003;66145;45.188;5.712;2023-05-24T12:20:56;14.00;14.00;9.67
54305;PMS7003;66145;45.188;5.712;2023-05-24T12:23:25;14.25;14.25;9.00
54305;PMS7003;66145;45.188;5.712;2023-05-24T12:25:57;13.00;12.00;8.00
54305;PMS7003;66145;45.188;5.712;2023-05-24T12:28:23;17.50;14.50;8.50
54305;PMS7003;66145;45.188;5.712;2023-05-24T12:30:49;13.33;11.00;8.67
54305;PMS7003;66145;45.188;5.712;2023-05-24T12:33:16;16.00;13.00;8.67
54305;PMS7003;66145;45.188;5.712;2023-05-24T12:35:43;13.25;11.00;8.50
54305;PMS7003;66145;45.188;5.712;2023-05-24T12:38:08;13.33;13.33;8.00
54305;PMS7003;66145;45.188;5.712;2023-05-24T12:40:34;12.25;12.25;8.00
54305;PMS7003;66145;45.188;5.712;2023-05-24T12:43:01;12.00;12.00;8.00
54305;PMS7003;66145;45.188;5.712;2023-05-24T12:45:28;12.00;12.00;8.00
54305;PMS7003;66145;45.188;5.712;2023-05-24T12:47:54;10.00;10.00;7.33
54305;PMS7003;66145;45.188;5.712;2023-05-24T12:50:22;13.00;13.00;7.75
54305;PMS7003;66145;45.188;5.712;2023-05-24T12:52:48;15.50;13.75;9.50
54305;PMS7003;66145;45.188;5.712;2023-05-24T12:55:17;12.00;11.50;8.00
54305;PMS7003;66145;45.188;5.712;2023-05-24T12:57:44;11.25;11.25;7.25
54305;PMS7003;66145;45.188;5.712;2023-05-24T13:00:20;14.00;12.75;8.00
54305;PMS7003;66145;45.188;5.712;2023-05-24T13:02:46;12.75;12.75;8.75
54305;PMS7003;66145;45.188;5.712;2023-05-24T13:05:12;19.33;18.00;11.00
54305;PMS7003;66145;45.188;5.712;2023-05-24T13:07:38;22.33;20.67;13.00
54305;PMS7003;66145;45.188;5.712;2023-05-24T13:10:05;22.75;22.75;14.75
54305;PMS7003;66145;45.188;5.712;2023-05-24T13:12:31;25.00;24.00;16.50
54305;PMS7003;66145;45.188;5.712;2023-05-24T13:14:57;22.75;22.75;14.75
54305;PMS7003;66145;45.188;5.712;2023-05-24T13:17:23;22.67;21.33;14.00
54305;PMS7003;66145;45.188;5.712;2023-05-24T13:19:49;23.33;21.00;13.67
54305;PMS7003;66145;45.188;5.712;2023-05-24T13:22:14;21.00;19.33;11.67
54305;PMS7003;66145;45.188;5.712;2023-05-24T13:24:40;18.67;17.67;13.00
54305;PMS7003;66145;45.188;5.712;2023-05-24T13:27:05;21.00;19.00;11.00
54305;PMS7003;66145;45.188;5.712;2023-05-24T13:29:31;19.00;19.00;12.00
54305;PMS7003;66145;45.188;5.712;2023-05-24T13:31:56;15.00;13.33;10.00
54305;PMS7003;66145;45.188;5.712;2023-05-24T13:34:22;18.33;15.00;10.00
54305;PMS7003;66145;45.188;5.712;2023-05-24T13:36:51;15.50;15.50;10.75
54305;PMS7003;66145;45.188;5.712;2023-05-24T13:39:18;14.25;14.25;9.75
54305;PMS7003;66145;45.188;5.712;2023-05-24T13:41:44;17.25;16.25;9.00
54305;PMS7003;66145;45.188;5.712;2023-05-24T13:44:13;16.00;12.67;9.00
54305;PMS7003;66145;45.188;5.712;2023-05-24T13:46:40;14.25;14.25;9.75
54305;PMS7003;66145;45.188;5.712;2023-05-24T13:49:06;16.33;14.33;10.00
54305;PMS7003;66145;45.188;5.712;2023-05-24T13:51:33;14.75;14.75;9.25
54305;PMS7003;66145;45.188;5.712;2023-05-24T13:53:59;17.00;16.33;11.33
54305;PMS7003;66145;45.188;5.712;2023-05-24T13:56:25;17.25;17.25;11.75
54305;PMS7003;66145;45.188;5.712;2023-05-24T13:58:56;16.25;15.75;10.50
54305;PMS7003;66145;45.188;5.712;2023-05-24T14:01:22;17.33;16.67;11.00
54305;PMS7003;66145;45.188;5.712;2023-05-24T14:03:47;18.00;15.67;10.00
54305;PMS7003;66145;45.188;5.712;2023-05-24T14:06:12;19.33;16.33;10.33
54305;PMS7003;66145;45.188;5.712;2023-05-24T14:08:38;12.67;12.67;8.33
54305;PMS7003;66145;45.188;5.712;2023-05-24T14:11:03;13.67;13.67;10.00
54305;PMS7003;66145;45.188;5.712;2023-05-24T14:13:28;15.33;13.33;8.67
54305;PMS7003;66145;45.188;5.712;2023-05-24T14:15:54;14.33;14.33;9.33
54305;PMS7003;66145;45.188;5.712;2023-05-24T14:18:19;14.00;12.33;10.00
54305;PMS7003;66145;45.188;5.712;2023-05-24T14:20:45;13.33;11.67;7.67
54305;PMS7003;66145;45.188;5.712;2023-05-24T14:23:10;10.33;10.00;7.00
54305;PMS7003;66145;45.188;5.712;2023-05-24T14:25:35;13.00;12.00;9.00